sensor_id;sensor_type;location;lat;lon;timestamp;temperature;humidity
9885;DHT22;4981;50.966;4.842;2023-02-11T02:22:35;6.50;1.00
9885;DHT22;4981;50.966;4.842;2023-02-11T02:25:23;6.40;1.00
9885;DHT22;4981;50.966;4.842;2023-02-11T02:36:10;6.60;1.00
9885;DHT22;4981;50.966;4.842;2023-02-11T02:43:42;6.60;1.00
9885;DHT22;4981;50.966;4.842;2023-02-11T02:46:13;6.60;1.00
9885;DHT22;4981;50.966;4.842;2023-02-11T02:48:40;6.80;1.00
9885;DHT22;4981;50.966;4.842;2023-02-11T02:51:25;6.60;1.00
9885;DHT22;4981;50.966;4.842;2023-02-11T02:54:01;6.80;1.00
9885;DHT22;4981;50.966;4.842;2023-02-11T02:56:35;6.60;1.00
9885;DHT22;4981;50.966;4.842;2023-02-11T02:59:21;6.80;1.00
9885;DHT22;4981;50.966;4.842;2023-02-11T03:01:58;6.60;1.00
9885;DHT22;4981;50.966;4.842;2023-02-11T03:04:35;6.90;1.00
9885;DHT22;4981;50.966;4.842;2023-02-11T03:07:11;6.90;1.00
9885;DHT22;4981;50.966;4.842;2023-02-11T03:09:41;6.60;1.00
9885;DHT22;4981;50.966;4.842;2023-02-11T03:12:11;6.70;1.00
9885;DHT22;4981;50.966;4.842;2023-02-11T03:14:40;7.10;1.00
9885;DHT22;4981;50.966;4.842;2023-02-11T03:17:09;6.90;1.00
9885;DHT22;4981;50.966;4.842;2023-02-11T03:19:38;7.00;1.00
9885;DHT22;4981;50.966;4.842;2023-02-11T03:22:12;7.00;1.00
9885;DHT22;4981;50.966;4.842;2023-02-11T03:24:42;7.00;1.00
9885;DHT22;4981;50.966;4.842;2023-02-11T03:27:17;6.70;1.00
9885;DHT22;4981;50.966;4.842;2023-02-11T03:29:51;7.00;1.00
9885;DHT22;4981;50.966;4.842;2023-02-11T03:32:25;6.80;1.00
9885;DHT22;4981;50.966;4.842;2023-02-11T03:37:28;6.70;1.00
9885;DHT22;4981;50.966;4.842;2023-02-11T03:40:01;7.00;1.00
9885;DHT22;4981;50.966;4.842;2023-02-11T03:42:32;6.70;1.00
9885;DHT22;4981;50.966;4.842;2023-02-11T03:45:04;6.70;1.00
9885;DHT22;4981;50.966;4.842;2023-02-11T03:47:35;7.00;1.00
9885;DHT22;4981;50.966;4.842;2023-02-11T03:50:04;7.00;1.00
9885;DHT22;4981;50.966;4.842;2023-02-11T03:52:35;7.00;1.00
9885;DHT22;4981;50.966;4.842;2023-02-11T03:55:08;7.30;1.00
9885;DHT22;4981;50.966;4.842;2023-02-11T03:57:37;7.00;1.00
9885;DHT22;4981;50.966;4.842;2023-02-11T04:00:06;6.80;1.00
9885;DHT22;4981;50.966;4.842;2023-02-11T04:02:35;6.70;1.00
9885;DHT22;4981;50.966;4.842;2023-02-11T04:05:03;7.00;1.00
9885;DHT22;4981;50.966;4.842;2023-02-11T04:07:31;6.70;1.00
9885;DHT22;4981;50.966;4.842;2023-02-11T04:10:00;7.10;1.00
9885;DHT22;4981;50.966;4.842;2023-02-11T04:12:27;7.10;1.00
9885;DHT22;4981;50.966;4.842;2023-02-11T04:14:55;7.40;1.00
9885;DHT22;4981;50.966;4.842;2023-02-11T04:17:22;6.80;1.00
9885;DHT22;4981;50.966;4.842;2023-02-11T04:19:50;6.90;1.00
9885;DHT22;4981;50.966;4.842;2023-02-11T04:24:45;6.80;1.00
9885;DHT22;4981;50.966;4.842;2023-02-11T04:27:13;7.10;1.00
9885;DHT22;4981;50.966;4.842;2023-02-11T04:29:41;6.80;1.00
9885;DHT22;4981;50.966;4.842;2023-02-11T04:32:08;7.10;1.00
9885;DHT22;4981;50.966;4.842;2023-02-11T04:34:36;7.10;1.00
9885;DHT22;4981;50.966;4.842;2023-02-11T04:37:04;7.10;1.00
9885;DHT22;4981;50.966;4.842;2023-02-11T04:39:31;7.20;1.00
9885;DHT22;4981;50.966;4.842;2023-02-11T04:41:59;6.90;1.00
9885;DHT22;4981;50.966;4.842;2023-02-11T04:44:30;7.00;1.00
9885;DHT22;4981;50.966;4.842;2023-02-11T04:46:57;7.10;1.00
9885;DHT22;4981;50.966;4.842;2023-02-11T04:49:25;6.90;1.00
9885;DHT22;4981;50.966;4.842;2023-02-11T04:51:52;6.90;1.00
9885;DHT22;4981;50.966;4.842;2023-02-11T04:54:19;7.00;1.00
9885;DHT22;4981;50.966;4.842;2023-02-11T04:56:47;6.90;1.00
9885;DHT22;4981;50.966;4.842;2023-02-11T04:59:15;7.00;1.00
9885;DHT22;4981;50.966;4.842;2023-02-11T05:01:44;7.20;1.00
9885;DHT22;4981;50.966;4.842;2023-02-11T05:04:12;6.90;1.00
9885;DHT22;4981;50.966;4.842;2023-02-11T05:06:39;7.10;1.00
9885;DHT22;4981;50.966;4.842;2023-02-11T05:09:06;7.20;1.00
9885;DHT22;4981;50.966;4.842;2023-02-11T05:11:34;7.20;1.00
9885;DHT22;4981;50.966;4.842;2023-02-11T05:14:03;7.10;1.00
9885;DHT22;4981;50.966;4.842;2023-02-11T05:16:31;6.90;1.00
9885;DHT22;4981;50.966;4.842;2023-02-11T05:19:00;6.90;1.00
9885;DHT22;4981;50.966;4.842;2023-02-11T05:21:28;6.90;1.00
9885;DHT22;4981;50.966;4.842;2023-02-11T05:23:56;6.90;1.00
9885;DHT22;4981;50.966;4.842;2023-02-11T05:26:24;7.70;1.00
9885;DHT22;4981;50.966;4.842;2023-02-11T05:28:51;7.20;1.00
9885;DHT22;4981;50.966;4.842;2023-02-11T05:31:19;7.20;1.00
9885;DHT22;4981;50.966;4.842;2023-02-11T05:33:46;6.90;1.00
9885;DHT22;4981;50.966;4.842;2023-02-11T05:36:15;7.20;1.00
9885;DHT22;4981;50.966;4.842;2023-02-11T05:38:42;7.00;1.00
9885;DHT22;4981;50.966;4.842;2023-02-11T05:41:12;7.30;1.00
9885;DHT22;4981;50.966;4.842;2023-02-11T05:43:39;7.00;1.00
9885;DHT22;4981;50.966;4.842;2023-02-11T05:46:07;7.00;1.00
9885;DHT22;4981;50.966;4.842;2023-02-11T05:48:34;7.30;1.00
9885;DHT22;4981;50.966;4.842;2023-02-11T05:51:01;7.00;1.00
9885;DHT22;4981;50.966;4.842;2023-02-11T05:53:30;7.10;1.00
9885;DHT22;4981;50.966;4.842;2023-02-11T05:55:58;7.30;1.00
9885;DHT22;4981;50.966;4.842;2023-02-11T05:58:25;7.00;1.00
9885;DHT22;4981;50.966;4.842;2023-02-11T06:00:52;7.30;1.00
9885;DHT22;4981;50.966;4.842;2023-02-11T06:03:20;7.00;1.00
9885;DHT22;4981;50.966;4.842;2023-02-11T06:05:47;7.30;1.00
9885;DHT22;4981;50.966;4.842;2023-02-11T06:08:14;7.20;1.00
9885;DHT22;4981;50.966;4.842;2023-02-11T06:10:45;7.20;1.00
9885;DHT22;4981;50.966;4.842;2023-02-11T06:15:40;7.10;1.00
9885;DHT22;4981;50.966;4.842;2023-02-11T06:18:07;6.90;1.00
9885;DHT22;4981;50.966;4.842;2023-02-11T06:20:34;7.20;1.00
9885;DHT22;4981;50.966;4.842;2023-02-11T06:23:05;7.20;1.00
9885;DHT22;4981;50.966;4.842;2023-02-11T06:25:32;7.20;1.00
9885;DHT22;4981;50.966;4.842;2023-02-11T06:28:01;7.20;1.00
9885;DHT22;4981;50.966;4.842;2023-02-11T06:30:28;7.40;1.00
9885;DHT22;4981;50.966;4.842;2023-02-11T06:32:56;7.20;1.00
9885;DHT22;4981;50.966;4.842;2023-02-11T06:37:51;7.00;1.00
9885;DHT22;4981;50.966;4.842;2023-02-11T06:40:18;7.20;1.00
9885;DHT22;4981;50.966;4.842;2023-02-11T06:42:46;7.20;1.00
9885;DHT22;4981;50.966;4.842;2023-02-11T06:45:15;7.20;1.00
9885;DHT22;4981;50.966;4.842;2023-02-11T06:50:12;7.00;1.00
9885;DHT22;4981;50.966;4.842;2023-02-11T06:52:40;7.30;1.00
9885;DHT22;4981;50.966;4.842;2023-02-11T06:55:08;7.10;1.00
9885;DHT22;4981;50.966;4.842;2023-02-11T06:57:36;7.30;1.00
9885;DHT22;4981;50.966;4.842;2023-02-11T07:00:04;7.70;1.00
9885;DHT22;4981;50.966;4.842;2023-02-11T07:02:32;7.30;1.00
9885;DHT22;4981;50.966;4.842;2023-02-11T07:04:59;7.30;1.00
9885;DHT22;4981;50.966;4.842;2023-02-11T07:07:27;7.30;1.00
9885;DHT22;4981;50.966;4.842;2023-02-11T07:12:24;7.00;1.00
9885;DHT22;4981;50.966;4.842;2023-02-11T07:14:51;7.60;1.00
9885;DHT22;4981;50.966;4.842;2023-02-11T07:17:19;7.20;1.00
9885;DHT22;4981;50.966;4.842;2023-02-11T07:19:47;7.30;1.00
9885;DHT22;4981;50.966;4.842;2023-02-11T07:22:15;7.10;1.00
9885;DHT22;4981;50.966;4.842;2023-02-11T07:24:42;7.30;1.00
9885;DHT22;4981;50.966;4.842;2023-02-11T07:29:37;7.20;1.00
9885;DHT22;4981;50.966;4.842;2023-02-11T07:32:04;7.10;1.00
9885;DHT22;4981;50.966;4.842;2023-02-11T07:34:32;7.40;1.00
9885;DHT22;4981;50.966;4.842;2023-02-11T07:37:01;7.40;1.00
9885;DHT22;4981;50.966;4.842;2023-02-11T07:39:28;7.40;1.00
9885;DHT22;4981;50.966;4.842;2023-02-11T07:41:56;7.40;1.00
9885;DHT22;4981;50.966;4.842;2023-02-11T07:44:23;7.40;1.00
9885;DHT22;4981;50.966;4.842;2023-02-11T07:46:50;7.40;1.00
9885;DHT22;4981;50.966;4.842;2023-02-11T07:49:18;7.50;1.00
9885;DHT22;4981;50.966;4.842;2023-02-11T07:51:45;7.40;1.00
9885;DHT22;4981;50.966;4.842;2023-02-11T07:54:15;7.50;1.00
9885;DHT22;4981;50.966;4.842;2023-02-11T07:56:42;7.50;1.00
9885;DHT22;4981;50.966;4.842;2023-02-11T07:59:10;7.60;1.00
9885;DHT22;4981;50.966;4.842;2023-02-11T08:04:05;7.40;1.00
9885;DHT22;4981;50.966;4.842;2023-02-11T08:06:33;7.30;1.00
9885;DHT22;4981;50.966;4.842;2023-02-11T08:11:33;7.40;1.00
9885;DHT22;4981;50.966;4.842;2023-02-11T08:14:00;7.60;1.00
9885;DHT22;4981;50.966;4.842;2023-02-11T08:16:29;7.30;1.00
9885;DHT22;4981;50.966;4.842;2023-02-11T08:18:59;7.60;1.00
9885;DHT22;4981;50.966;4.842;2023-02-11T08:21:27;7.40;1.00
9885;DHT22;4981;50.966;4.842;2023-02-11T08:23:55;7.50;1.00
9885;DHT22;4981;50.966;4.842;2023-02-11T08:26:24;7.70;1.00
9885;DHT22;4981;50.966;4.842;2023-02-11T08:28:54;7.40;1.00
9885;DHT22;4981;50.966;4.842;2023-02-11T08:31:24;7.60;1.00
9885;DHT22;4981;50.966;4.842;2023-02-11T08:33:52;7.40;1.00
9885;DHT22;4981;50.966;4.842;2023-02-11T08:36:25;8.50;1.00
9885;DHT22;4981;50.966;4.842;2023-02-11T08:41:21;7.60;1.00
9885;DHT22;4981;50.966;4.842;2023-02-11T08:43:49;7.50;1.00
9885;DHT22;4981;50.966;4.842;2023-02-11T08:46:19;7.80;1.00
9885;DHT22;4981;50.966;4.842;2023-02-11T08:48:47;7.60;1.00
9885;DHT22;4981;50.966;4.842;2023-02-11T08:51:16;7.80;1.00
9885;DHT22;4981;50.966;4.842;2023-02-11T08:53:43;7.60;1.00
9885;DHT22;4981;50.966;4.842;2023-02-11T08:56:12;7.60;1.00
9885;DHT22;4981;50.966;4.842;2023-02-11T08:58:40;7.50;1.00
9885;DHT22;4981;50.966;4.842;2023-02-11T09:01:12;7.60;1.00
9885;DHT22;4981;50.966;4.842;2023-02-11T09:03:41;7.60;1.00
9885;DHT22;4981;50.966;4.842;2023-02-11T09:06:10;7.90;1.00
9885;DHT22;4981;50.966;4.842;2023-02-11T09:08:40;7.60;1.00
9885;DHT22;4981;50.966;4.842;2023-02-11T09:11:07;7.60;1.00
9885;DHT22;4981;50.966;4.842;2023-02-11T09:13:36;7.80;1.00
9885;DHT22;4981;50.966;4.842;2023-02-11T09:16:04;7.90;1.00
9885;DHT22;4981;50.966;4.842;2023-02-11T09:18:32;7.90;1.00
9885;DHT22;4981;50.966;4.842;2023-02-11T09:21:06;8.30;1.00
9885;DHT22;4981;50.966;4.842;2023-02-11T09:26:05;7.70;1.00
9885;DHT22;4981;50.966;4.842;2023-02-11T09:28:32;7.80;1.00
9885;DHT22;4981;50.966;4.842;2023-02-11T09:31:04;8.00;1.00
9885;DHT22;4981;50.966;4.842;2023-02-11T09:36:00;7.80;1.00
9885;DHT22;4981;50.966;4.842;2023-02-11T09:40:57;7.80;1.00
9885;DHT22;4981;50.966;4.842;2023-02-11T09:43:31;8.10;1.00
9885;DHT22;4981;50.966;4.842;2023-02-11T09:48:39;7.90;1.00
9885;DHT22;4981;50.966;4.842;2023-02-11T09:51:15;8.00;1.00
9885;DHT22;4981;50.966;4.842;2023-02-11T09:56:16;7.80;1.00
9885;DHT22;4981;50.966;4.842;2023-02-11T10:27:01;8.10;1.00
9885;DHT22;4981;50.966;4.842;2023-02-11T10:29:35;8.40;1.00
9885;DHT22;4981;50.966;4.842;2023-02-11T14:26:24;9.00;1.00
9885;DHT22;4981;50.966;4.842;2023-02-11T14:31:30;9.10;1.00
9885;DHT22;4981;50.966;4.842;2023-02-11T14:41:49;9.00;1.00
9885;DHT22;4981;50.966;4.842;2023-02-11T14:44:20;9.00;1.00
9885;DHT22;4981;50.966;4.842;2023-02-11T14:51:48;9.00;1.00
9885;DHT22;4981;50.966;4.842;2023-02-11T14:54:17;9.20;1.00
9885;DHT22;4981;50.966;4.842;2023-02-11T14:57:05;9.00;1.00
9885;DHT22;4981;50.966;4.842;2023-02-11T14:59:34;9.00;1.00
9885;DHT22;4981;50.966;4.842;2023-02-11T15:02:01;9.00;1.00
9885;DHT22;4981;50.966;4.842;2023-02-11T15:04:30;9.40;1.00
9885;DHT22;4981;50.966;4.842;2023-02-11T15:12:00;9.10;1.00
9885;DHT22;4981;50.966;4.842;2023-02-11T15:19:29;9.00;1.00
9885;DHT22;4981;50.966;4.842;2023-02-11T15:24:26;9.10;1.00
9885;DHT22;4981;50.966;4.842;2023-02-11T16:22:45;9.00;1.00
9885;DHT22;4981;50.966;4.842;2023-02-11T16:25:17;8.90;1.00
9885;DHT22;4981;50.966;4.842;2023-02-11T16:30:24;8.90;1.00
9885;DHT22;4981;50.966;4.842;2023-02-11T18:11:49;8.70;1.00
9885;DHT22;4981;50.966;4.842;2023-02-11T20:00:43;8.40;1.00
9885;DHT22;4981;50.966;4.842;2023-02-11T20:17:59;8.30;1.00
